Time;durP1;ratioP1;P1;durP2;ratioP2;P2;SDS_P1;SDS_P2;PMS_P1;PMS_P2;Temp;Humidity;BMP_temperature;BMP_pressure;BME280_temperature;BME280_humidity;BME280_pressure;Samples;Min_cycle;Max_cycle;Signal;HPM_P1;HPM_P2
2021/10/11 00:02:09;;;;;;;25.20;17.13;;;3.90;99.90;;;;;;5035053;28;20394;-79
2021/10/11 00:04:34;;;;;;;28.50;16.98;;;3.90;99.90;;;;;;5039323;28;20118;-79
2021/10/11 00:07:00;;;;;;;26.38;16.67;;;3.90;99.90;;;;;;5030750;28;20577;-78
2021/10/11 00:09:26;;;;;;;25.77;17.08;;;3.90;99.90;;;;;;5031795;28;20112;-79
2021/10/11 00:11:51;;;;;;;29.40;17.42;;;3.90;99.90;;;;;;5030971;28;20127;-79
2021/10/11 00:14:17;;;;;;;32.60;19.67;;;3.90;99.90;;;;;;5031759;28;20410;-80
2021/10/11 00:16:43;;;;;;;30.38;18.65;;;3.80;99.90;;;;;;5031303;28;20026;-74
2021/10/11 00:19:09;;;;;;;31.17;18.92;;;3.80;99.90;;;;;;5056063;28;20029;-79
2021/10/11 00:21:34;;;;;;;29.58;18.05;;;3.80;99.90;;;;;;5071738;28;20028;-79
2021/10/11 00:24:00;;;;;;;30.48;18.20;;;3.80;99.90;;;;;;5070741;28;20127;-79
2021/10/11 00:26:26;;;;;;;29.33;17.27;;;3.70;99.90;;;;;;5071533;28;20147;-79
2021/10/11 00:28:51;;;;;;;31.45;19.30;;;3.70;99.90;;;;;;5066806;28;20075;-79
2021/10/11 00:31:17;;;;;;;26.95;18.40;;;3.60;99.90;;;;;;5031467;28;20029;-78
2021/10/11 00:33:43;;;;;;;31.42;20.70;;;3.60;99.90;;;;;;5031258;28;20036;-74
2021/10/11 00:36:08;;;;;;;29.83;20.05;;;3.70;99.90;;;;;;5030826;28;20033;-79
2021/10/11 00:38:34;;;;;;;27.88;18.60;;;3.70;99.90;;;;;;5031631;28;20381;-80
2021/10/11 00:41:00;;;;;;;34.80;19.27;;;3.70;99.90;;;;;;5030773;28;20573;-79
2021/10/11 00:43:26;;;;;;;30.63;19.85;;;3.70;99.90;;;;;;5031158;28;20040;-77
2021/10/11 00:45:51;;;;;;;36.53;21.52;;;3.70;99.90;;;;;;5030269;28;20021;-79
2021/10/11 00:48:17;;;;;;;33.45;19.10;;;3.80;99.90;;;;;;5013865;28;20069;-80
2021/10/11 00:50:43;;;;;;;29.45;18.98;;;3.80;99.90;;;;;;5030943;28;20116;-74
2021/10/11 00:53:09;;;;;;;33.22;19.70;;;3.80;99.90;;;;;;5030815;28;20030;-79
2021/10/11 00:55:35;;;;;;;29.65;19.48;;;3.80;99.90;;;;;;5033381;28;20447;-79
2021/10/11 00:58:01;;;;;;;32.92;19.60;;;3.70;99.90;;;;;;5036441;28;20097;-79
2021/10/11 01:00:27;;;;;;;30.20;18.75;;;3.70;99.90;;;;;;5034747;28;20523;-79
2021/10/11 01:02:52;;;;;;;31.13;18.90;;;3.70;99.90;;;;;;5034615;28;20029;-79
2021/10/11 01:05:18;;;;;;;26.08;17.00;;;3.70;99.90;;;;;;5034615;28;20099;-78
2021/10/11 01:07:44;;;;;;;26.75;18.33;;;3.70;99.90;;;;;;5034416;28;20434;-74
2021/10/11 01:10:10;;;;;;;26.27;17.52;;;3.70;99.90;;;;;;5034826;28;20116;-79
2021/10/11 01:12:36;;;;;;;28.73;17.27;;;3.60;99.90;;;;;;5034589;28;20453;-76
2021/10/11 01:15:01;;;;;;;30.15;18.98;;;3.60;99.90;;;;;;5034495;28;20124;-78
2021/10/11 01:17:27;;;;;;;30.30;19.10;;;3.60;99.90;;;;;;5035587;28;20049;-79
2021/10/11 01:19:57;;;;;;;24.75;16.08;;;3.60;99.90;;;;;;5055385;28;20103;-79
2021/10/11 01:22:32;;;;;;;;;;;3.50;99.90;;;;;;5075352;28;20032;-79
2021/10/11 01:24:58;;;;;;;28.02;17.48;;;3.40;99.90;;;;;;5036330;28;19912;-79
2021/10/11 01:27:28;;;;;;;31.75;17.88;;;3.30;99.90;;;;;;5034742;28;20033;-78
2021/10/11 01:29:57;;;;;;;34.83;20.40;;;3.30;99.90;;;;;;5033362;28;20521;-78
2021/10/11 01:32:22;;;;;;;30.45;18.98;;;3.30;99.90;;;;;;5034569;28;20112;-79
2021/10/11 01:34:49;;;;;;;32.83;20.00;;;3.30;99.90;;;;;;5033760;28;20104;-78
2021/10/11 01:37:15;;;;;;;32.92;19.50;;;3.20;99.90;;;;;;5034581;28;20025;-78
2021/10/11 01:39:40;;;;;;;32.60;19.58;;;3.20;99.90;;;;;;5051792;28;20048;-77
2021/10/11 01:42:06;;;;;;;31.58;19.30;;;3.10;99.90;;;;;;5053237;28;20565;-80
2021/10/11 01:44:32;;;;;;;30.02;19.20;;;3.10;99.90;;;;;;5054172;28;20029;-75
2021/10/11 01:46:57;;;;;;;29.77;18.67;;;3.10;99.90;;;;;;5053389;28;20466;-79
2021/10/11 01:49:23;;;;;;;32.00;18.83;;;3.00;99.90;;;;;;5054222;28;20430;-79
2021/10/11 01:51:49;;;;;;;31.58;18.27;;;3.00;99.90;;;;;;5053433;28;20494;-79
2021/10/11 01:54:14;;;;;;;29.73;17.85;;;3.00;99.90;;;;;;5053910;28;20120;-79
2021/10/11 01:56:40;;;;;;;34.58;19.38;;;2.90;99.90;;;;;;5054196;28;20099;-77
2021/10/11 01:59:05;;;;;;;32.40;20.00;;;2.90;99.90;;;;;;5049656;28;20021;-79
2021/10/11 02:01:31;;;;;;;32.50;19.85;;;2.90;99.90;;;;;;5033531;28;20044;-78
2021/10/11 02:03:57;;;;;;;37.67;21.15;;;2.90;99.90;;;;;;5032963;28;20481;-78
2021/10/11 02:06:22;;;;;;;38.97;21.98;;;2.90;99.90;;;;;;5033285;28;20096;-78
2021/10/11 02:08:48;;;;;;;29.63;19.60;;;3.00;99.90;;;;;;5033573;28;20078;-74
2021/10/11 02:11:14;;;;;;;35.58;22.17;;;3.00;99.90;;;;;;5053621;28;20079;-79
2021/10/11 02:13:40;;;;;;;32.47;20.63;;;3.00;99.90;;;;;;5053853;28;20536;-76
2021/10/11 02:16:05;;;;;;;32.95;20.00;;;3.00;99.90;;;;;;5052722;28;20104;-79
2021/10/11 02:18:31;;;;;;;37.63;21.67;;;2.90;99.90;;;;;;5053567;28;20112;-79
2021/10/11 02:20:57;;;;;;;41.60;23.05;;;2.90;99.90;;;;;;5072197;28;20039;-78
2021/10/11 02:23:22;;;;;;;36.20;21.05;;;2.90;99.90;;;;;;5073921;28;20366;-79
2021/10/11 02:25:48;;;;;;;31.02;19.90;;;2.90;99.90;;;;;;5072652;28;20481;-74
2021/10/11 02:28:14;;;;;;;33.72;21.42;;;2.90;99.90;;;;;;5073642;28;20052;-78
2021/10/11 02:30:40;;;;;;;33.63;20.85;;;2.90;99.90;;;;;;5073388;28;20044;-78
2021/10/11 02:33:05;;;;;;;35.63;21.77;;;2.90;99.90;;;;;;5072513;28;20108;-79
2021/10/11 02:35:31;;;;;;;37.85;22.67;;;2.90;99.90;;;;;;5073848;28;20060;-79
2021/10/11 02:37:57;;;;;;;33.70;20.75;;;2.80;99.90;;;;;;5049208;28;20087;-79
2021/10/11 02:40:22;;;;;;;37.38;21.35;;;2.80;99.90;;;;;;5033379;28;20033;-79
2021/10/11 02:42:48;;;;;;;31.13;19.98;;;2.80;99.90;;;;;;5033039;28;20050;-73
2021/10/11 02:45:13;;;;;;;35.42;20.02;;;2.70;99.90;;;;;;5032710;28;20060;-78
2021/10/11 02:47:39;;;;;;;34.10;21.40;;;2.70;99.90;;;;;;5015740;28;20462;-76
2021/10/11 02:50:05;;;;;;;35.90;22.83;;;2.70;99.90;;;;;;5032813;28;20031;-78
2021/10/11 02:52:33;;;;;;;40.05;22.15;;;2.60;99.90;;;;;;5033094;28;20382;-78
2021/10/11 02:54:59;;;;;;;35.00;22.42;;;2.60;99.90;;;;;;5044713;28;20368;-78
2021/10/11 02:57:25;;;;;;;38.00;22.65;;;2.70;99.90;;;;;;5053183;28;20029;-80
2021/10/11 02:59:51;;;;;;;34.47;20.80;;;2.60;99.90;;;;;;5051758;28;20500;-78
2021/10/11 03:02:16;;;;;;;33.03;21.23;;;2.70;99.90;;;;;;5052808;28;20110;-80
2021/10/11 03:04:42;;;;;;;33.97;20.33;;;2.60;99.90;;;;;;5053110;28;20029;-79
2021/10/11 03:07:07;;;;;;;34.72;21.35;;;2.60;99.90;;;;;;5028473;28;20223;-79
2021/10/11 03:09:33;;;;;;;30.25;20.25;;;2.50;99.90;;;;;;5014277;28;20459;-79
2021/10/11 03:11:59;;;;;;;37.05;22.52;;;2.50;99.90;;;;;;5031013;28;20079;-78
2021/10/11 03:14:24;;;;;;;34.03;21.83;;;2.50;99.90;;;;;;5032051;28;20030;-78
2021/10/11 03:16:50;;;;;;;38.42;23.25;;;2.50;99.90;;;;;;5030866;28;20036;-73
2021/10/11 03:19:16;;;;;;;39.47;23.50;;;2.50;99.90;;;;;;5024797;28;20027;-79
2021/10/11 03:21:41;;;;;;;46.17;25.30;;;2.60;99.90;;;;;;5071496;28;20040;-77
2021/10/11 03:24:07;;;;;;;40.85;25.30;;;2.60;99.90;;;;;;5070858;28;20032;-78
2021/10/11 03:26:33;;;;;;;42.72;23.45;;;2.70;99.90;;;;;;5071757;28;20473;-79
2021/10/11 03:28:58;;;;;;;33.63;21.65;;;2.70;99.90;;;;;;5032117;28;20036;-79
2021/10/11 03:31:24;;;;;;;35.65;22.10;;;2.70;99.90;;;;;;5031669;28;20109;-78
2021/10/11 03:33:49;;;;;;;33.13;22.10;;;2.70;99.90;;;;;;5031490;28;20383;-74
2021/10/11 03:36:15;;;;;;;35.47;21.23;;;2.70;99.90;;;;;;5031723;28;20414;-80
2021/10/11 03:38:41;;;;;;;34.08;22.08;;;2.60;99.90;;;;;;5031350;28;20045;-77
2021/10/11 03:41:06;;;;;;;35.08;21.38;;;2.60;99.90;;;;;;5033482;28;20493;-79
2021/10/11 03:43:32;;;;;;;35.78;21.08;;;2.50;99.90;;;;;;5040181;28;20357;-78
2021/10/11 03:45:58;;;;;;;40.60;22.67;;;2.50;99.90;;;;;;5039982;28;20026;-78
2021/10/11 03:48:24;;;;;;;37.53;21.67;;;2.50;99.90;;;;;;5038983;28;20459;-78
2021/10/11 03:50:50;;;;;;;33.92;21.92;;;2.40;99.90;;;;;;5039927;28;20108;-73
2021/10/11 03:53:16;;;;;;;33.97;20.55;;;2.40;99.90;;;;;;5037912;28;20041;-78
2021/10/11 03:55:42;;;;;;;39.05;22.45;;;2.40;99.90;;;;;;5040803;28;20039;-78
2021/10/11 03:58:08;;;;;;;39.45;24.30;;;2.30;99.90;;;;;;5038794;28;20036;-79
2021/10/11 04:00:34;;;;;;;38.75;23.95;;;2.30;99.90;;;;;;5039198;28;20028;-78
2021/10/11 04:03:03;;;;;;;38.45;22.95;;;2.40;99.90;;;;;;5039980;28;20033;-76
2021/10/11 04:05:28;;;;;;;38.30;23.42;;;2.40;99.90;;;;;;5039179;28;20030;-75
2021/10/11 04:07:55;;;;;;;33.37;20.70;;;2.50;99.90;;;;;;5000341;28;1108802;-79
2021/10/11 04:10:27;;;;;;;35.03;21.77;;;2.40;99.90;;;;;;5039428;28;20029;-80
2021/10/11 04:12:57;;;;;;;41.88;23.58;;;2.40;99.90;;;;;;5039838;28;20024;-78
2021/10/11 04:15:22;;;;;;;35.00;20.73;;;2.30;99.90;;;;;;5041483;28;20021;-79
2021/10/11 04:17:48;;;;;;;39.03;22.45;;;2.30;99.90;;;;;;5039438;28;20489;-74
2021/10/11 04:20:14;;;;;;;42.33;22.60;;;2.30;99.90;;;;;;5042237;28;20013;-79
2021/10/11 04:22:40;;;;;;;37.20;22.58;;;2.30;99.90;;;;;;5039328;28;20075;-79
2021/10/11 04:25:06;;;;;;;36.75;21.48;;;2.20;99.90;;;;;;5040493;28;20025;-80
2021/10/11 04:27:32;;;;;;;34.80;21.58;;;2.20;99.90;;;;;;5040310;28;20057;-77
2021/10/11 04:29:58;;;;;;;41.42;21.38;;;2.20;99.90;;;;;;5037670;28;20060;-80
2021/10/11 04:32:24;;;;;;;41.85;23.90;;;2.10;99.90;;;;;;5040973;28;20100;-78
2021/10/11 04:34:49;;;;;;;38.72;22.60;;;2.10;99.90;;;;;;5039272;28;20060;-76
2021/10/11 04:37:15;;;;;;;39.85;24.17;;;2.00;99.90;;;;;;5039795;28;20025;-79
2021/10/11 04:39:41;;;;;;;38.70;23.77;;;2.00;99.90;;;;;;5039318;28;20431;-80
2021/10/11 04:42:06;;;;;;;42.05;26.17;;;2.00;99.90;;;;;;5040161;28;20029;-80
2021/10/11 04:44:32;;;;;;;43.03;25.08;;;2.10;99.90;;;;;;5040105;28;20094;-81
2021/10/11 04:46:57;;;;;;;43.42;24.55;;;2.10;99.90;;;;;;5038210;28;20056;-81
2021/10/11 04:49:23;;;;;;;40.08;23.50;;;2.10;99.90;;;;;;5040980;28;20489;-80
2021/10/11 04:51:49;;;;;;;38.33;24.38;;;2.10;99.90;;;;;;5039252;28;20021;-73
2021/10/11 04:54:14;;;;;;;46.17;27.48;;;2.10;99.90;;;;;;5041287;28;20115;-79
2021/10/11 04:56:41;;;;;;;50.13;27.88;;;2.10;99.90;;;;;;5044372;28;20033;-80
2021/10/11 04:59:07;;;;;;;46.33;25.63;;;2.20;99.90;;;;;;5050451;28;20107;-80
2021/10/11 05:01:32;;;;;;;44.38;25.85;;;2.20;99.90;;;;;;5051122;28;20480;-80
2021/10/11 05:03:58;;;;;;;49.75;26.95;;;2.20;99.90;;;;;;5050340;28;20064;-83
2021/10/11 05:06:23;;;;;;;42.53;26.65;;;2.20;99.90;;;;;;5051191;28;20497;-83
2021/10/11 05:08:49;;;;;;;49.28;27.88;;;2.30;99.90;;;;;;5050785;28;20037;-76
2021/10/11 05:11:15;;;;;;;52.03;28.38;;;2.40;99.90;;;;;;5050014;28;20484;-82
2021/10/11 05:13:40;;;;;;;52.60;28.85;;;2.40;99.90;;;;;;5051135;28;20029;-79
2021/10/11 05:16:15;;;;;;;46.25;26.02;;;2.50;99.90;;;;;;5050164;28;20029;-80
2021/10/11 05:18:41;;;;;;;43.38;24.85;;;2.60;99.90;;;;;;5051713;28;20108;-82
2021/10/11 05:21:06;;;;;;;39.65;24.52;;;2.60;99.90;;;;;;5070165;28;20142;-80
2021/10/11 05:23:32;;;;;;;44.97;25.42;;;2.60;99.90;;;;;;5047756;28;20045;-81
2021/10/11 05:25:58;;;;;;;42.97;25.30;;;2.50;99.90;;;;;;5030035;28;20022;-80
2021/10/11 05:28:23;;;;;;;39.67;24.52;;;2.60;99.90;;;;;;5031251;28;20037;-80
2021/10/11 05:30:49;;;;;;;49.20;25.70;;;2.50;99.90;;;;;;5031213;28;20029;-80
2021/10/11 05:33:19;;;;;;;40.83;24.88;;;2.50;99.90;;;;;;5030541;28;20033;-81
2021/10/11 05:35:45;;;;;;;41.72;23.83;;;2.50;99.90;;;;;;5031060;28;20048;-81
2021/10/11 05:38:11;;;;;;;42.58;24.27;;;2.50;99.90;;;;;;5030296;28;20042;-80
2021/10/11 05:40:36;;;;;;;44.90;25.63;;;2.50;99.90;;;;;;5031652;28;20359;-80
2021/10/11 05:43:03;;;;;;;49.70;27.13;;;2.50;99.90;;;;;;5036583;28;20025;-79
2021/10/11 05:45:29;;;;;;;50.63;26.05;;;2.50;99.90;;;;;;5036442;28;20021;-77
2021/10/11 05:47:54;;;;;;;45.78;26.88;;;2.60;99.90;;;;;;5033640;28;20040;-75
2021/10/11 05:50:20;;;;;;;43.90;25.33;;;2.60;99.90;;;;;;5051503;28;20036;-76
2021/10/11 05:52:46;;;;;;;44.88;26.17;;;2.60;99.90;;;;;;5052833;28;20103;-80
2021/10/11 05:55:12;;;;;;;42.38;24.85;;;2.70;99.90;;;;;;5053138;28;20020;-77
2021/10/11 05:57:37;;;;;;;40.92;23.42;;;2.80;99.90;;;;;;5054406;28;20032;-80
2021/10/11 06:00:04;;;;;;;41.50;24.00;;;2.90;99.90;;;;;;5053246;28;20021;-80
2021/10/11 06:02:30;;;;;;;42.03;23.60;;;2.80;99.90;;;;;;5054096;28;20052;-76
2021/10/11 06:04:56;;;;;;;39.28;24.45;;;2.80;99.90;;;;;;5053046;28;20374;-76
2021/10/11 06:07:21;;;;;;;38.03;24.13;;;2.80;99.90;;;;;;5053737;28;20452;-77
2021/10/11 06:09:47;;;;;;;38.95;23.45;;;2.70;99.90;;;;;;5053943;28;20021;-76
2021/10/11 06:12:13;;;;;;;41.95;23.83;;;2.70;99.90;;;;;;5052916;28;20480;-76
2021/10/11 06:14:38;;;;;;;33.75;22.23;;;2.70;99.90;;;;;;5053941;28;20025;-76
2021/10/11 06:17:04;;;;;;;33.22;21.77;;;2.60;99.90;;;;;;5046858;28;20666;-71
2021/10/11 06:19:30;;;;;;;34.97;21.77;;;2.60;99.90;;;;;;5052150;28;20056;-76
2021/10/11 06:21:56;;;;;;;41.28;25.50;;;2.60;99.90;;;;;;5053213;28;20029;-75
2021/10/11 06:24:21;;;;;;;46.28;25.77;;;2.70;99.90;;;;;;5053286;28;20033;-76
2021/10/11 06:26:47;;;;;;;38.33;24.25;;;2.70;99.90;;;;;;5053822;28;20032;-75
2021/10/11 06:29:13;;;;;;;39.20;24.92;;;2.80;99.90;;;;;;5052797;28;20039;-74
2021/10/11 06:31:38;;;;;;;40.53;24.65;;;2.90;99.90;;;;;;5053597;28;20389;-76
2021/10/11 06:34:05;;;;;;;38.45;22.90;;;3.00;99.90;;;;;;5052573;28;20032;-75
2021/10/11 06:36:34;;;;;;;33.17;22.00;;;3.00;99.90;;;;;;5053002;28;20037;-75
2021/10/11 06:39:01;;;;;;;34.53;22.58;;;3.10;99.90;;;;;;5034883;28;20335;-75
2021/10/11 06:41:27;;;;;;;39.83;24.75;;;3.20;99.90;;;;;;5053222;28;20120;-75
2021/10/11 06:43:52;;;;;;;43.53;24.83;;;3.20;99.90;;;;;;5052979;28;20104;-72
2021/10/11 06:46:18;;;;;;;36.38;22.63;;;3.40;99.90;;;;;;5052303;28;20550;-76
2021/10/11 06:48:44;;;;;;;38.97;23.73;;;3.60;99.90;;;;;;5052726;28;20025;-76
2021/10/11 06:51:09;;;;;;;35.20;20.80;;;3.80;99.90;;;;;;5051790;28;20056;-75
2021/10/11 06:53:36;;;;;;;32.10;20.95;;;3.90;99.90;;;;;;5048834;28;20098;-76
2021/10/11 06:56:02;;;;;;;33.13;21.67;;;4.00;99.90;;;;;;5052213;28;20025;-76
2021/10/11 06:58:28;;;;;;;32.50;21.13;;;4.00;99.90;;;;;;5052197;28;20025;-76
2021/10/11 07:00:54;;;;;;;36.75;21.92;;;4.10;99.90;;;;;;5052717;28;20055;-72
2021/10/11 07:03:24;;;;;;;32.35;20.73;;;4.20;99.90;;;;;;5051379;28;20107;-74
2021/10/11 07:05:50;;;;;;;;;;;4.30;99.90;;;;;;5052860;28;20079;-76
2021/10/11 07:08:16;;;;;;;30.92;20.33;;;4.50;99.90;;;;;;5051860;28;19917;-73
2021/10/11 07:10:41;;;;;;;29.67;18.77;;;4.60;99.90;;;;;;5052202;28;20112;-74
2021/10/11 07:13:07;;;;;;;29.40;19.40;;;4.70;99.90;;;;;;5051958;28;20033;-75
2021/10/11 07:15:33;;;;;;;27.63;18.58;;;4.80;99.90;;;;;;5052808;28;20386;-75
2021/10/11 07:18:00;;;;;;;29.42;19.83;;;4.90;99.90;;;;;;5039301;28;20025;-75
2021/10/11 07:20:26;;;;;;;31.17;19.27;;;5.00;99.90;;;;;;5062419;28;20038;-74
2021/10/11 07:22:51;;;;;;;25.70;17.67;;;5.10;99.90;;;;;;5072106;28;20029;-75
2021/10/11 07:25:17;;;;;;;28.80;19.73;;;5.20;99.90;;;;;;5071383;28;20028;-73
2021/10/11 07:27:43;;;;;;;28.67;19.17;;;5.40;99.90;;;;;;5072025;28;20108;-74
2021/10/11 07:30:09;;;;;;;27.35;19.10;;;5.60;99.90;;;;;;5071425;28;20107;-74
2021/10/11 07:32:34;;;;;;;26.80;17.20;;;5.80;99.90;;;;;;5071894;28;20492;-74
2021/10/11 07:35:01;;;;;;;26.35;17.75;;;5.90;99.90;;;;;;5071198;28;20024;-75
2021/10/11 07:37:27;;;;;;;31.50;18.27;;;6.10;99.90;;;;;;5071955;28;20029;-75
2021/10/11 07:39:53;;;;;;;30.77;18.77;;;6.20;99.90;;;;;;5072106;28;20355;-75
2021/10/11 07:42:18;;;;;;;31.58;17.42;;;6.30;99.90;;;;;;5071427;28;20036;-75
2021/10/11 07:44:44;;;;;;;24.50;16.98;;;6.40;99.90;;;;;;5072026;28;20434;-75
2021/10/11 07:47:10;;;;;;;30.65;18.35;;;6.50;99.90;;;;;;5059707;28;20025;-73
2021/10/11 07:49:35;;;;;;;29.30;18.30;;;6.70;99.90;;;;;;5031895;28;20367;-74
2021/10/11 07:52:02;;;;;;;28.88;15.13;;;6.90;99.90;;;;;;5031094;28;20038;-74
2021/10/11 07:54:27;;;;;;;28.02;16.42;;;7.00;99.90;;;;;;5031621;28;20116;-74
2021/10/11 07:56:53;;;;;;;26.70;16.95;;;7.10;99.90;;;;;;5031941;28;20490;-74
2021/10/11 07:59:19;;;;;;;28.38;16.65;;;7.30;99.90;;;;;;5030974;28;20026;-73
2021/10/11 08:01:44;;;;;;;24.75;15.88;;;7.40;99.90;;;;;;5031830;28;20072;-74
2021/10/11 08:04:10;;;;;;;25.42;16.73;;;7.60;99.90;;;;;;5030898;28;20041;-74
2021/10/11 08:06:36;;;;;;;29.58;16.95;;;7.70;99.90;;;;;;5031317;28;20050;-74
2021/10/11 08:09:04;;;;;;;23.50;15.18;;;7.80;99.90;;;;;;5030679;28;20033;-74
2021/10/11 08:11:30;;;;;;;23.52;15.88;;;7.90;99.90;;;;;;5031604;28;20538;-77
2021/10/11 08:13:57;;;;;;;26.63;14.88;;;7.90;99.90;;;;;;5031721;28;20032;-72
2021/10/11 08:16:22;;;;;;;25.30;16.27;;;8.00;99.90;;;;;;5030858;28;20053;-76
2021/10/11 08:18:48;;;;;;;23.35;15.05;;;8.10;99.90;;;;;;5035006;28;20053;-74
2021/10/11 08:21:13;;;;;;;25.80;16.20;;;8.20;99.90;;;;;;5065268;28;20377;-73
2021/10/11 08:23:41;;;;;;;23.25;15.68;;;8.20;99.90;;;;;;5051662;28;20044;-74
2021/10/11 08:26:08;;;;;;;27.33;15.82;;;8.30;99.90;;;;;;5050733;28;20017;-74
2021/10/11 08:28:35;;;;;;;24.45;16.30;;;8.30;99.90;;;;;;5051260;28;20021;-74
2021/10/11 08:31:00;;;;;;;22.80;16.02;;;8.50;99.90;;;;;;5032628;28;20120;-70
2021/10/11 08:33:26;;;;;;;23.55;15.23;;;8.60;99.90;;;;;;5050891;28;20112;-75
2021/10/11 08:35:52;;;;;;;28.48;15.88;;;8.60;99.90;;;;;;5051080;28;20029;-75
2021/10/11 08:38:17;;;;;;;26.40;15.98;;;8.70;99.90;;;;;;5050421;28;20079;-75
2021/10/11 08:40:46;;;;;;;24.63;15.05;;;8.70;99.90;;;;;;5051058;28;20029;-77
2021/10/11 08:43:11;;;;;;;25.40;16.27;;;8.70;99.90;;;;;;5050543;28;20025;-75
2021/10/11 08:45:37;;;;;;;30.48;18.10;;;8.70;99.90;;;;;;5051210;28;20040;-77
2021/10/11 08:48:03;;;;;;;24.73;16.95;;;8.80;99.90;;;;;;5037299;28;20104;-77
2021/10/11 08:50:29;;;;;;;24.95;16.30;;;8.90;99.90;;;;;;5030459;28;20521;-76
2021/10/11 08:52:54;;;;;;;23.77;16.10;;;9.00;99.90;;;;;;5030851;28;20034;-77
2021/10/11 08:55:20;;;;;;;24.85;16.38;;;9.10;99.90;;;;;;5030411;28;20026;-75
2021/10/11 08:57:46;;;;;;;31.67;18.60;;;9.30;99.90;;;;;;5031210;28;20072;-77
2021/10/11 09:00:14;;;;;;;30.05;17.58;;;9.50;99.90;;;;;;5029958;28;20037;-76
2021/10/11 09:02:51;;;;;;;26.60;17.33;;;9.70;99.90;;;;;;5031247;28;20033;-76
2021/10/11 09:05:40;;;;;;;29.63;18.30;;;9.90;99.90;;;;;;5029867;28;20034;-75
2021/10/11 09:08:11;;;;;;;28.55;18.02;;;10.20;99.90;;;;;;5030253;28;20380;-77
2021/10/11 09:10:54;;;;;;;27.00;16.23;;;10.40;99.90;;;;;;5042658;28;20029;-76
2021/10/11 09:13:22;;;;;;;25.80;16.17;;;10.60;99.90;;;;;;5050355;28;20029;-77
2021/10/11 09:16:01;;;;;;;25.77;14.98;;;10.70;99.90;;;;;;5051852;28;20025;-76
2021/10/11 09:18:29;;;;;;;23.08;15.18;;;10.80;99.90;;;;;;5038565;28;20108;-76
2021/10/11 09:20:54;;;;;;;24.33;15.30;;;10.90;99.90;;;;;;5073020;28;20048;-76
2021/10/11 09:23:23;;;;;;;25.17;15.15;;;11.00;99.90;;;;;;5073393;28;20028;-76
2021/10/11 09:25:49;;;;;;;25.42;14.75;;;11.10;99.90;;;;;;5074321;28;20500;-76
2021/10/11 09:28:18;;;;;;;25.33;15.07;;;11.20;99.90;;;;;;5055795;28;20066;-76
2021/10/11 09:30:47;;;;;;;26.25;15.60;;;11.20;99.90;;;;;;5074636;28;20071;-76
2021/10/11 09:33:18;;;;;;;26.95;16.92;;;11.30;99.90;;;;;;5073717;28;20024;-76
2021/10/11 09:35:45;;;;;;;22.27;14.73;;;11.30;99.90;;;;;;5074031;28;20031;-76
2021/10/11 09:38:26;;;;;;;19.48;13.45;;;11.30;99.90;;;;;;5073311;28;20074;-76
2021/10/11 09:40:54;;;;;;;23.98;16.02;;;11.40;99.90;;;;;;5073992;28;20060;-76
2021/10/11 09:43:23;;;;;;;28.65;15.75;;;11.40;99.90;;;;;;5073388;28;20075;-75
2021/10/11 09:45:50;;;;;;;21.83;14.77;;;11.50;99.90;;;;;;5074175;28;20031;-76
2021/10/11 09:48:16;;;;;;;23.85;15.07;;;11.60;99.90;;;;;;5044051;28;20029;-75
2021/10/11 09:50:42;;;;;;;26.42;16.48;;;11.60;99.90;;;;;;5034290;28;20488;-76
2021/10/11 09:53:10;;;;;;;24.45;14.65;;;11.60;99.90;;;;;;5033575;28;20030;-75
2021/10/11 09:55:38;;;;;;;27.80;15.40;;;11.60;99.90;;;;;;5033924;28;20021;-76
2021/10/11 09:58:06;;;;;;;24.80;15.05;;;11.60;99.90;;;;;;5033414;28;20021;-71
2021/10/11 10:00:32;;;;;;;20.55;14.15;;;11.60;99.90;;;;;;5033895;28;20038;-76
2021/10/11 10:02:57;;;;;;;20.05;14.20;;;11.80;99.90;;;;;;5034199;28;20025;-76
2021/10/11 10:05:29;;;;;;;23.17;15.70;;;11.80;99.90;;;;;;5032864;28;20052;-76
2021/10/11 10:07:57;;;;;;;22.77;14.23;;;12.00;99.90;;;;;;5034161;28;20186;-76
2021/10/11 10:10:25;;;;;;;27.90;15.60;;;12.10;99.90;;;;;;5032851;28;20108;-76
2021/10/11 10:12:52;;;;;;;21.02;13.95;;;12.30;99.70;;;;;;5034062;28;20024;-76
2021/10/11 10:15:29;;;;;;;24.60;14.60;;;12.30;99.80;;;;;;5047571;28;20028;-75
2021/10/11 10:18:06;;;;;;;24.95;15.18;;;12.40;99.70;;;;;;5053855;28;20147;-76
2021/10/11 10:20:33;;;;;;;22.23;15.00;;;12.60;97.70;;;;;;5069340;28;20098;-75
2021/10/11 10:22:59;;;;;;;21.17;13.93;;;12.70;97.80;;;;;;5073249;28;20037;-75
2021/10/11 10:25:26;;;;;;;20.50;14.25;;;12.90;99.90;;;;;;5072498;28;20039;-79
2021/10/11 10:27:54;;;;;;;23.80;15.38;;;13.00;99.90;;;;;;5073517;28;20085;-84
2021/10/11 10:30:25;;;;;;;21.13;14.13;;;13.10;99.90;;;;;;5072575;28;20045;-82
2021/10/11 10:32:53;;;;;;;25.17;14.50;;;13.10;99.00;;;;;;5073771;28;20451;-80
2021/10/11 10:35:19;;;;;;;19.33;13.55;;;13.00;95.80;;;;;;5072061;28;20108;-75
2021/10/11 10:37:45;;;;;;;28.73;15.63;;;13.00;96.10;;;;;;5073318;28;20449;-79
2021/10/11 10:40:14;;;;;;;26.35;14.38;;;13.10;95.50;;;;;;5072057;28;20039;-75
2021/10/11 10:42:40;;;;;;;20.05;13.40;;;13.10;95.60;;;;;;5073164;28;20108;-78
2021/10/11 10:45:21;;;;;;;28.95;15.23;;;13.10;95.40;;;;;;5072712;28;20116;-72
2021/10/11 10:47:49;;;;;;;25.52;14.70;;;13.20;94.90;;;;;;5051882;28;20040;-77
2021/10/11 10:50:20;;;;;;;24.27;14.38;;;13.40;94.00;;;;;;5032489;28;20029;-75
2021/10/11 10:52:52;;;;;;;24.70;15.85;;;13.40;94.20;;;;;;5032975;28;20030;-76
2021/10/11 10:55:18;;;;;;;29.98;16.95;;;13.80;93.10;;;;;;5047570;28;20374;-76
2021/10/11 10:57:44;;;;;;;25.30;16.95;;;13.90;92.70;;;;;;5052819;28;20033;-77
2021/10/11 11:00:14;;;;;;;21.40;15.70;;;13.90;92.40;;;;;;5052090;28;20128;-79
2021/10/11 11:02:50;;;;;;;24.52;15.85;;;13.80;92.70;;;;;;5052706;28;20037;-78
2021/10/11 11:05:18;;;;;;;23.70;15.05;;;13.80;92.20;;;;;;5052134;28;20029;-76
2021/10/11 11:07:47;;;;;;;22.60;14.40;;;13.90;92.10;;;;;;5052785;28;20076;-76
2021/10/11 11:10:27;;;;;;;30.73;16.57;;;14.10;92.20;;;;;;5051352;28;20033;-76
2021/10/11 11:12:58;;;;;;;25.83;15.35;;;14.20;91.50;;;;;;5052365;28;20282;-77
2021/10/11 11:15:35;;;;;;;26.58;15.55;;;14.30;91.60;;;;;;5051511;28;20529;-77
2021/10/11 11:18:14;;;;;;;25.23;16.75;;;14.50;90.70;;;;;;5039896;28;20026;-76
2021/10/11 11:20:41;;;;;;;22.80;15.45;;;14.60;90.30;;;;;;5066506;28;20029;-76
2021/10/11 11:23:11;;;;;;;28.58;15.70;;;14.70;90.50;;;;;;5071778;28;20028;-72
2021/10/11 11:25:45;;;;;;;26.17;17.02;;;14.80;90.20;;;;;;5072294;28;20511;-76
2021/10/11 11:28:22;;;;;;;22.65;14.68;;;14.90;89.40;;;;;;5071288;28;20017;-75
2021/10/11 11:30:49;;;;;;;26.42;17.10;;;14.90;89.80;;;;;;5072610;28;20029;-78
2021/10/11 11:33:16;;;;;;;28.63;17.08;;;14.90;88.20;;;;;;5071524;28;20047;-78
2021/10/11 11:35:47;;;;;;;21.35;15.20;;;14.90;86.70;;;;;;5072064;28;20059;-76
2021/10/11 11:38:16;;;;;;;27.05;15.73;;;14.80;85.80;;;;;;5070784;28;20040;-76
2021/10/11 11:40:56;;;;;;;28.77;16.08;;;14.70;85.80;;;;;;5072200;28;20032;-73
2021/10/11 11:43:23;;;;;;;27.98;16.23;;;14.70;87.20;;;;;;5071269;28;20059;-76
2021/10/11 11:45:54;;;;;;;27.25;15.70;;;14.70;86.90;;;;;;5072088;28;20469;-76
2021/10/11 11:48:25;;;;;;;23.63;13.93;;;14.80;86.80;;;;;;5040465;28;20592;-76
2021/10/11 11:50:56;;;;;;;20.88;14.50;;;14.90;87.80;;;;;;5032120;28;20068;-76
2021/10/11 11:53:23;;;;;;;33.50;14.68;;;15.10;85.20;;;;;;5030854;28;20030;-75
2021/10/11 11:55:51;;;;;;;27.38;14.25;;;15.30;84.00;;;;;;5032063;28;20108;-76
2021/10/11 11:58:25;;;;;;;23.25;13.75;;;15.40;82.70;;;;;;5030620;28;20415;-76
2021/10/11 12:00:54;;;;;;;21.90;14.60;;;15.70;82.40;;;;;;5031892;28;20025;-76
2021/10/11 12:03:21;;;;;;;22.23;14.25;;;16.00;80.80;;;;;;5030944;28;20083;-74
2021/10/11 12:05:52;;;;;;;34.13;15.30;;;16.20;79.30;;;;;;5031492;28;20478;-77
2021/10/11 12:08:19;;;;;;;22.95;13.57;;;16.30;77.80;;;;;;5030448;28;20060;-77
2021/10/11 12:11:05;;;;;;;22.10;13.35;;;16.40;77.70;;;;;;5031958;28;20067;-77
2021/10/11 12:13:36;;;;;;;20.77;14.85;;;16.50;77.60;;;;;;5030782;28;20034;-77
2021/10/11 12:16:10;;;;;;;21.38;14.77;;;16.80;74.70;;;;;;5041917;28;20518;-76
2021/10/11 12:18:47;;;;;;;22.25;13.90;;;16.90;74.00;;;;;;5033909;28;20108;-75
2021/10/11 12:21:34;;;;;;;18.73;12.90;;;16.80;74.00;;;;;;5052505;28;20028;-77
2021/10/11 12:24:02;;;;;;;26.13;14.07;;;16.70;74.80;;;;;;5071507;28;20029;-78
2021/10/11 12:26:30;;;;;;;17.55;12.45;;;16.80;74.50;;;;;;5070073;28;20477;-77
2021/10/11 12:29:02;;;;;;;21.98;14.82;;;16.90;74.60;;;;;;5071415;28;20115;-77
2021/10/11 12:31:31;;;;;;;20.23;13.40;;;17.20;72.60;;;;;;5053017;28;20092;-78
2021/10/11 12:34:07;;;;;;;28.00;15.00;;;17.20;72.80;;;;;;5053109;28;20486;-78
2021/10/11 12:36:46;;;;;;;20.60;13.98;;;17.40;72.90;;;;;;5050659;28;20108;-78